Time;durP1;ratioP1;P1;durP2;ratioP2;P2;SDS_P1;SDS_P2;PMS_P1;PMS_P2;Temp;Humidity;BMP_temperature;BMP_pressure;BME280_temperature;BME280_humidity;BME280_pressure;Samples;Min_cycle;Max_cycle;Signal;HPM_P1;HPM_P2
2023/09/02 00:01:24;;;;;;;18.85;12.00;;;13.90;99.90;;;;;;5037031;28;20026;-66
2023/09/02 00:03:50;;;;;;;18.45;11.15;;;13.80;99.90;;;;;;5036810;28;20037;-66
2023/09/02 00:06:15;;;;;;;18.95;11.52;;;13.80;99.90;;;;;;5037094;28;20095;-66
2023/09/02 00:08:41;;;;;;;17.52;11.75;;;13.80;99.90;;;;;;5036746;28;20102;-65
2023/09/02 00:11:07;;;;;;;16.05;11.02;;;13.80;99.90;;;;;;5036726;28;20018;-65
2023/09/02 00:13:32;;;;;;;16.42;10.95;;;13.80;99.90;;;;;;5036483;28;20036;-65
2023/09/02 00:15:58;;;;;;;16.25;11.25;;;13.70;99.90;;;;;;5036856;28;20029;-65
2023/09/02 00:18:23;;;;;;;18.83;11.85;;;13.70;99.90;;;;;;5036593;28;20033;-65
2023/09/02 00:20:49;;;;;;;16.02;11.23;;;13.70;99.90;;;;;;5036615;28;20025;-65
2023/09/02 00:23:15;;;;;;;16.60;10.35;;;13.70;99.90;;;;;;5036120;28;20489;-65
2023/09/02 00:25:41;;;;;;;16.20;9.90;;;13.60;99.90;;;;;;5036453;28;20031;-64
2023/09/02 00:28:07;;;;;;;22.20;10.45;;;13.60;99.90;;;;;;5035731;28;20026;-64
2023/09/02 00:30:32;;;;;;;21.40;11.63;;;13.60;99.90;;;;;;5036177;28;20497;-65
2023/09/02 00:32:58;;;;;;;22.63;12.55;;;13.60;99.90;;;;;;5036100;28;20108;-64
2023/09/02 00:35:23;;;;;;;19.40;10.43;;;13.60;99.90;;;;;;5036401;28;20033;-64
2023/09/02 00:37:49;;;;;;;18.23;11.48;;;13.60;99.90;;;;;;5036391;28;20433;-64
2023/09/02 00:40:18;;;;;;;26.55;13.35;;;13.60;99.90;;;;;;5035483;28;20033;-64
2023/09/02 00:42:45;;;;;;;27.83;13.63;;;13.70;99.90;;;;;;5035895;28;20040;-65
2023/09/02 00:45:11;;;;;;;26.17;14.30;;;13.70;99.90;;;;;;5036334;28;20083;-65
2023/09/02 00:47:37;;;;;;;31.55;15.32;;;13.70;99.90;;;;;;5035661;28;20116;-64
2023/09/02 00:50:04;;;;;;;41.42;16.08;;;13.80;99.90;;;;;;5035165;28;20052;-64
2023/09/02 00:52:33;;;;;;;26.83;13.65;;;13.80;99.90;;;;;;5035737;28;20111;-64
2023/09/02 00:54:58;;;;;;;27.40;14.77;;;13.80;99.90;;;;;;5035727;28;20032;-66
2023/09/02 00:57:25;;;;;;;39.25;17.23;;;13.90;99.90;;;;;;5035617;28;20470;-65
2023/09/02 00:59:51;;;;;;;26.95;14.25;;;13.90;99.90;;;;;;5035634;28;20053;-65
2023/09/02 01:02:17;;;;;;;28.33;14.93;;;13.90;99.90;;;;;;5036048;28;20123;-64
2023/09/02 01:04:44;;;;;;;26.40;14.30;;;14.00;99.90;;;;;;5035665;28;20077;-64
2023/09/02 01:07:10;;;;;;;23.48;13.80;;;14.00;99.90;;;;;;5035771;28;20112;-64
2023/09/02 01:09:36;;;;;;;24.42;13.80;;;14.00;99.90;;;;;;5035248;28;20113;-64
2023/09/02 01:12:02;;;;;;;21.50;12.77;;;14.00;99.90;;;;;;5035474;28;20033;-64
2023/09/02 01:14:27;;;;;;;20.08;11.70;;;14.10;99.90;;;;;;5035271;28;20025;-64
2023/09/02 01:16:53;;;;;;;29.98;15.45;;;14.10;99.90;;;;;;5035508;28;20056;-64
2023/09/02 01:19:20;;;;;;;25.90;12.98;;;14.10;99.90;;;;;;5035630;28;20356;-64
2023/09/02 01:24:50;;;;;;;28.08;14.60;;;14.20;99.90;;;;;;5071466;28;20437;-65
2023/09/02 01:27:26;;;;;;;29.55;14.57;;;14.30;99.90;;;;;;5070863;28;20546;-65
2023/09/02 01:30:14;;;;;;;27.55;14.70;;;14.30;99.90;;;;;;5070999;28;20463;-65
2023/09/02 01:32:42;;;;;;;26.88;14.32;;;14.30;99.90;;;;;;5070687;28;20032;-65
2023/09/02 01:35:09;;;;;;;29.33;14.52;;;14.30;99.90;;;;;;5070823;28;20056;-65
2023/09/02 01:37:42;;;;;;;32.75;16.42;;;14.30;99.90;;;;;;5071477;28;20426;-65
2023/09/02 01:40:11;;;;;;;38.55;16.65;;;14.40;99.90;;;;;;5070867;28;20029;-64
2023/09/02 01:42:38;;;;;;;27.23;14.05;;;14.40;99.90;;;;;;5071115;28;20481;-64
2023/09/02 01:45:04;;;;;;;35.60;15.15;;;14.40;99.90;;;;;;5070714;28;20021;-65
2023/09/02 01:47:31;;;;;;;30.95;14.45;;;14.40;99.90;;;;;;5071242;28;20025;-65
2023/09/02 01:49:57;;;;;;;29.35;15.27;;;14.40;99.90;;;;;;5070588;28;20463;-64
2023/09/02 01:52:23;;;;;;;31.85;15.45;;;14.40;99.90;;;;;;5070569;28;20494;-65
2023/09/02 01:54:49;;;;;;;27.67;14.48;;;14.40;99.90;;;;;;5071116;28;20028;-64
2023/09/02 01:57:15;;;;;;;35.38;15.02;;;14.40;99.90;;;;;;5070783;28;20029;-64
2023/09/02 01:59:41;;;;;;;28.40;14.43;;;14.50;99.90;;;;;;5070473;28;20501;-64
2023/09/02 02:02:07;;;;;;;25.27;12.93;;;14.40;99.90;;;;;;5070617;28;20037;-65
2023/09/02 02:04:36;;;;;;;28.50;14.57;;;14.50;99.90;;;;;;5070560;28;20579;-65
2023/09/02 02:07:09;;;;;;;33.47;14.88;;;14.50;99.90;;;;;;5070798;28;20056;-65
2023/09/02 02:09:47;;;;;;;32.33;15.10;;;14.50;99.90;;;;;;5070703;28;20477;-65
2023/09/02 02:12:14;;;;;;;30.35;13.90;;;14.50;99.90;;;;;;5069995;28;20351;-65
2023/09/02 02:14:39;;;;;;;26.08;12.73;;;14.50;99.90;;;;;;5070607;28;20021;-65
2023/09/02 02:17:06;;;;;;;23.70;12.60;;;14.50;99.90;;;;;;5070346;28;20466;-65
2023/09/02 02:19:32;;;;;;;30.52;14.15;;;14.50;99.90;;;;;;5069816;28;20028;-65
2023/09/02 02:21:58;;;;;;;34.88;14.10;;;14.50;99.90;;;;;;5069982;28;20547;-65
2023/09/02 02:24:25;;;;;;;35.63;14.90;;;14.50;99.90;;;;;;5069861;28;20036;-64
2023/09/02 02:26:50;;;;;;;36.63;17.02;;;14.50;99.90;;;;;;5070355;28;20032;-65
2023/09/02 02:29:16;;;;;;;42.10;16.25;;;14.50;99.90;;;;;;5069823;28;20120;-66
2023/09/02 02:31:42;;;;;;;34.55;15.63;;;14.50;99.90;;;;;;5070201;28;20036;-65
2023/09/02 02:34:07;;;;;;;35.83;15.98;;;14.50;99.90;;;;;;5065553;28;20426;-65
2023/09/02 02:36:33;;;;;;;40.05;16.20;;;14.50;99.90;;;;;;5056786;28;20033;-65
2023/09/02 02:38:59;;;;;;;36.38;16.52;;;14.50;99.90;;;;;;5056527;28;20038;-65
2023/09/02 02:41:24;;;;;;;35.13;16.55;;;14.50;99.90;;;;;;5057039;28;20037;-65
2023/09/02 02:43:50;;;;;;;34.40;16.08;;;14.50;99.90;;;;;;5056387;28;20056;-65
2023/09/02 02:46:15;;;;;;;32.45;14.50;;;14.50;99.90;;;;;;5056482;28;20021;-66
2023/09/02 02:48:41;;;;;;;40.05;17.17;;;14.50;99.90;;;;;;5056477;28;20360;-66
2023/09/02 02:51:07;;;;;;;39.55;17.63;;;14.40;99.90;;;;;;5056611;28;20028;-65
2023/09/02 02:53:34;;;;;;;34.50;16.33;;;14.40;99.90;;;;;;5056334;28;20091;-65
2023/09/02 02:56:02;;;;;;;32.17;16.15;;;14.40;99.90;;;;;;5056288;28;20074;-65
2023/09/02 02:58:29;;;;;;;33.03;15.13;;;14.30;99.90;;;;;;5056206;28;20029;-65
2023/09/02 03:01:04;;;;;;;32.25;15.25;;;14.30;99.90;;;;;;5056340;28;20091;-65
2023/09/02 03:03:30;;;;;;;27.13;14.73;;;14.30;99.90;;;;;;5055729;28;20036;-67
2023/09/02 03:05:56;;;;;;;29.00;14.23;;;14.30;99.90;;;;;;5056047;28;20401;-65
2023/09/02 03:08:22;;;;;;;28.33;14.48;;;14.30;99.90;;;;;;5055626;28;20038;-65
2023/09/02 03:10:58;;;;;;;38.95;16.98;;;14.30;99.90;;;;;;5055945;28;20029;-65
2023/09/02 03:13:25;;;;;;;40.40;17.15;;;14.30;99.90;;;;;;5056324;28;20120;-65
2023/09/02 03:15:53;;;;;;;36.33;16.35;;;14.30;99.90;;;;;;5055207;28;20029;-65
2023/09/02 03:18:19;;;;;;;44.15;18.08;;;14.30;99.90;;;;;;5055657;28;20390;-65
2023/09/02 03:20:44;;;;;;;26.60;13.90;;;14.30;99.90;;;;;;5056191;28;20040;-64
2023/09/02 03:23:10;;;;;;;40.17;17.02;;;14.20;99.90;;;;;;5054656;28;20060;-65
2023/09/02 03:25:37;;;;;;;47.67;21.15;;;14.20;99.90;;;;;;5055400;28;20028;-65
2023/09/02 03:28:03;;;;;;;35.35;16.58;;;14.20;99.90;;;;;;5055416;28;20017;-64
2023/09/02 03:30:29;;;;;;;29.40;15.13;;;14.10;99.90;;;;;;5055143;28;20029;-64
2023/09/02 03:32:55;;;;;;;38.35;18.42;;;14.10;99.90;;;;;;5055441;28;20040;-64
2023/09/02 03:35:21;;;;;;;37.80;17.77;;;14.10;99.90;;;;;;5055650;28;20065;-64
2023/09/02 03:37:46;;;;;;;34.63;16.05;;;14.00;99.90;;;;;;5055465;28;20029;-64
2023/09/02 03:40:12;;;;;;;34.70;16.45;;;14.00;99.90;;;;;;5054908;28;20029;-65
2023/09/02 03:42:38;;;;;;;31.48;15.15;;;14.00;99.90;;;;;;5055744;28;20040;-65
2023/09/02 03:45:04;;;;;;;35.45;17.42;;;13.90;99.90;;;;;;5055238;28;20025;-65
2023/09/02 03:47:31;;;;;;;41.97;17.67;;;13.80;99.90;;;;;;5054009;28;20025;-65
2023/09/02 03:49:57;;;;;;;36.60;16.08;;;13.70;99.90;;;;;;5055339;28;20048;-65
2023/09/02 03:52:22;;;;;;;44.85;17.58;;;13.70;99.90;;;;;;5054985;28;20032;-70
2023/09/02 03:54:48;;;;;;;41.25;17.95;;;13.70;99.90;;;;;;5054803;28;20025;-65
2023/09/02 03:57:14;;;;;;;36.47;17.02;;;13.70;99.90;;;;;;5055349;28;20083;-65
2023/09/02 03:59:39;;;;;;;37.95;16.90;;;13.60;99.90;;;;;;5054744;28;20028;-65
2023/09/02 04:02:05;;;;;;;43.17;18.65;;;13.70;99.90;;;;;;5055347;28;20032;-65
2023/09/02 04:04:31;;;;;;;35.05;16.70;;;13.60;99.90;;;;;;5055293;28;20158;-65
2023/09/02 04:06:56;;;;;;;41.40;19.25;;;13.60;99.90;;;;;;5055010;28;20032;-65
2023/09/02 04:09:22;;;;;;;52.47;22.85;;;13.70;99.90;;;;;;5054585;28;20021;-65
2023/09/02 04:11:48;;;;;;;50.75;21.45;;;13.70;99.90;;;;;;5054395;28;20038;-65
2023/09/02 04:14:13;;;;;;;43.38;20.17;;;13.70;99.90;;;;;;5055171;28;20037;-65
2023/09/02 04:16:39;;;;;;;42.42;20.38;;;13.70;99.90;;;;;;5054428;28;20039;-65
2023/09/02 04:19:04;;;;;;;51.85;22.90;;;13.70;99.90;;;;;;5054975;28;20371;-65
2023/09/02 04:21:31;;;;;;;45.42;20.70;;;13.80;99.90;;;;;;5054482;28;20032;-66
2023/09/02 04:23:56;;;;;;;52.67;21.90;;;13.90;99.90;;;;;;5053798;28;20049;-65
2023/09/02 04:26:22;;;;;;;47.42;21.45;;;13.90;99.90;;;;;;5053879;28;20103;-65
2023/09/02 04:28:49;;;;;;;51.38;21.77;;;13.90;99.90;;;;;;5054901;28;20032;-65
2023/09/02 04:31:14;;;;;;;50.85;21.80;;;14.00;99.90;;;;;;5054410;28;20378;-65
2023/09/02 04:33:40;;;;;;;51.80;21.77;;;14.00;99.90;;;;;;5054370;28;20029;-65
2023/09/02 04:36:06;;;;;;;45.55;22.15;;;14.00;99.90;;;;;;5054020;28;20025;-65
2023/09/02 04:38:32;;;;;;;47.88;21.83;;;14.10;99.90;;;;;;5053982;28;20119;-65
2023/09/02 04:41:01;;;;;;;48.97;21.77;;;14.10;99.90;;;;;;5054568;28;20037;-65
2023/09/02 04:43:27;;;;;;;51.33;22.55;;;14.10;99.90;;;;;;5053948;28;20032;-65
2023/09/02 04:45:53;;;;;;;55.83;24.00;;;14.10;99.90;;;;;;5054203;28;20035;-65
2023/09/02 04:48:18;;;;;;;50.95;21.55;;;14.10;99.90;;;;;;5054331;28;20017;-65
2023/09/02 04:50:55;;;;;;;48.17;21.70;;;14.20;99.90;;;;;;5054115;28;20036;-65
2023/09/02 04:53:21;;;;;;;39.08;20.40;;;14.20;99.90;;;;;;5054503;28;20111;-65
2023/09/02 04:55:48;;;;;;;50.30;23.52;;;14.20;99.90;;;;;;5054423;28;20032;-65
2023/09/02 04:58:14;;;;;;;54.67;24.23;;;14.20;99.90;;;;;;5053396;28;20024;-65
2023/09/02 05:00:40;;;;;;;53.67;23.60;;;14.30;99.90;;;;;;5054006;28;20029;-65
2023/09/02 05:03:06;;;;;;;52.88;22.67;;;14.30;99.90;;;;;;5053858;28;20517;-65
2023/09/02 05:05:31;;;;;;;50.70;24.00;;;14.40;99.90;;;;;;5053982;28;20147;-65
2023/09/02 05:07:58;;;;;;;46.00;22.52;;;14.40;99.90;;;;;;5053821;28;20060;-65
2023/09/02 05:10:24;;;;;;;52.15;23.88;;;14.40;99.90;;;;;;5034062;28;20041;-65
2023/09/02 05:12:50;;;;;;;55.50;24.83;;;14.40;99.90;;;;;;5034244;28;20088;-65
2023/09/02 05:15:16;;;;;;;54.15;24.63;;;14.50;99.90;;;;;;5034221;28;20069;-65
2023/09/02 05:17:42;;;;;;;51.45;24.63;;;14.40;99.90;;;;;;5034235;28;20060;-65
2023/09/02 05:20:09;;;;;;;48.92;23.70;;;14.50;99.90;;;;;;5033801;28;20589;-65
2023/09/02 05:22:35;;;;;;;53.30;23.15;;;14.50;99.90;;;;;;5033811;28;20110;-65
2023/09/02 05:25:01;;;;;;;51.97;24.02;;;14.50;99.90;;;;;;5033948;28;20108;-67
2023/09/02 05:27:27;;;;;;;50.53;24.95;;;14.60;99.90;;;;;;5033869;28;20018;-65
2023/09/02 05:29:52;;;;;;;47.10;23.17;;;14.60;99.90;;;;;;5033116;28;20391;-65
2023/09/02 05:32:18;;;;;;;48.63;23.05;;;14.70;99.90;;;;;;5033625;28;20064;-65
2023/09/02 05:34:44;;;;;;;46.40;22.85;;;14.70;99.90;;;;;;5033897;28;20026;-65
2023/09/02 05:37:10;;;;;;;42.75;23.17;;;14.80;99.90;;;;;;5033288;28;20026;-65
2023/09/02 05:39:36;;;;;;;44.83;22.45;;;14.90;99.90;;;;;;5033769;28;20036;-66
2023/09/02 05:42:02;;;;;;;43.90;21.67;;;14.90;99.90;;;;;;5033309;28;20108;-65
2023/09/02 05:44:28;;;;;;;40.55;22.13;;;15.00;99.90;;;;;;5033549;28;20038;-65
2023/09/02 05:46:54;;;;;;;41.80;22.30;;;15.00;99.90;;;;;;5033943;28;20422;-65
2023/09/02 05:49:20;;;;;;;37.13;22.00;;;15.00;99.90;;;;;;5033513;28;20026;-65
2023/09/02 05:51:45;;;;;;;36.28;20.27;;;15.00;99.90;;;;;;5033269;28;20057;-65
2023/09/02 05:54:11;;;;;;;35.20;20.63;;;15.00;99.90;;;;;;5033701;28;20063;-65
2023/09/02 05:56:37;;;;;;;41.72;21.58;;;15.00;99.90;;;;;;5033686;28;20029;-66
2023/09/02 05:59:03;;;;;;;46.13;23.60;;;15.10;99.90;;;;;;5033850;28;20367;-66
2023/09/02 06:01:29;;;;;;;45.38;23.75;;;15.10;99.90;;;;;;5033581;28;20029;-66
2023/09/02 06:03:55;;;;;;;42.28;22.83;;;15.20;99.90;;;;;;5033323;28;20033;-66
2023/09/02 06:06:21;;;;;;;41.40;22.27;;;15.20;99.90;;;;;;5033751;28;20025;-65
2023/09/02 06:08:46;;;;;;;42.40;22.55;;;15.30;99.90;;;;;;5033565;28;20021;-73
2023/09/02 06:11:12;;;;;;;42.13;21.70;;;15.40;99.90;;;;;;5036844;28;20472;-65
2023/09/02 06:13:38;;;;;;;39.92;22.83;;;15.50;99.90;;;;;;5037494;28;20037;-65
2023/09/02 06:16:05;;;;;;;40.97;23.15;;;15.60;99.90;;;;;;5037055;28;20434;-65
2023/09/02 06:18:32;;;;;;;38.88;22.77;;;15.60;99.90;;;;;;5036126;28;20025;-65
2023/09/02 06:20:58;;;;;;;41.38;23.25;;;15.70;99.90;;;;;;5036304;28;20073;-66
2023/09/02 06:23:24;;;;;;;36.03;20.77;;;15.70;99.90;;;;;;5036396;28;20077;-65
2023/09/02 06:25:58;;;;;;;36.00;21.95;;;15.80;99.90;;;;;;5036906;28;20026;-66
2023/09/02 06:28:24;;;;;;;39.45;24.48;;;15.90;99.90;;;;;;5037238;28;20031;-66
2023/09/02 06:30:50;;;;;;;38.25;23.85;;;15.80;99.90;;;;;;5036772;28;20025;-66
2023/09/02 06:33:17;;;;;;;43.47;24.27;;;16.00;99.90;;;;;;5036848;28;20025;-66
2023/09/02 06:35:43;;;;;;;37.42;24.13;;;16.10;99.90;;;;;;5036888;28;20038;-66
2023/09/02 06:38:09;;;;;;;41.80;25.33;;;16.20;99.90;;;;;;5036745;28;20037;-66
2023/09/02 06:40:34;;;;;;;35.60;22.85;;;16.20;99.90;;;;;;5036721;28;20040;-66
2023/09/02 06:43:00;;;;;;;41.80;23.15;;;16.20;99.90;;;;;;5036490;28;20040;-66
2023/09/02 06:45:26;;;;;;;37.88;23.50;;;16.40;99.90;;;;;;5036329;28;20384;-66
2023/09/02 06:47:51;;;;;;;36.50;23.48;;;16.40;99.90;;;;;;5036895;28;20022;-66
2023/09/02 06:50:17;;;;;;;32.00;21.65;;;16.60;99.90;;;;;;5036845;28;20150;-66
2023/09/02 06:52:42;;;;;;;31.00;21.17;;;16.60;99.90;;;;;;5036761;28;20418;-66
2023/09/02 06:55:08;;;;;;;29.95;20.65;;;16.60;99.90;;;;;;5036465;28;20061;-67
2023/09/02 06:57:34;;;;;;;30.42;20.52;;;16.80;99.90;;;;;;5036123;28;20108;-66
2023/09/02 07:00:00;;;;;;;27.95;19.42;;;17.00;99.90;;;;;;5036615;28;20041;-66
2023/09/02 07:02:25;;;;;;;28.00;20.00;;;17.10;99.90;;;;;;5036000;28;20029;-66
2023/09/02 07:04:51;;;;;;;28.17;18.65;;;17.10;99.90;;;;;;5036235;28;20030;-66
2023/09/02 07:07:17;;;;;;;28.10;18.88;;;17.20;99.90;;;;;;5036493;28;20049;-66
2023/09/02 07:09:43;;;;;;;23.13;17.38;;;17.40;99.90;;;;;;5036223;28;20486;-66
2023/09/02 07:12:08;;;;;;;21.63;16.95;;;17.70;99.90;;;;;;5036273;28;20108;-67
2023/09/02 07:14:34;;;;;;;24.58;16.88;;;17.90;99.90;;;;;;5035983;28;20442;-66
2023/09/02 07:16:59;;;;;;;24.52;16.45;;;18.10;99.90;;;;;;5036130;28;20040;-66
2023/09/02 07:19:25;;;;;;;23.13;16.92;;;18.10;99.90;;;;;;5035629;28;20026;-66
2023/09/02 07:21:51;;;;;;;29.70;22.40;;;18.10;99.90;;;;;;5036104;28;20030;-66
2023/09/02 07:24:16;;;;;;;22.80;17.73;;;18.40;99.90;;;;;;5034704;28;20046;-66
2023/09/02 07:26:42;;;;;;;22.05;16.77;;;18.50;99.90;;;;;;5035850;28;20029;-66
2023/09/02 07:29:08;;;;;;;22.00;16.58;;;18.80;99.90;;;;;;5035846;28;20033;-66
2023/09/02 07:31:33;;;;;;;20.00;15.15;;;18.80;99.90;;;;;;5036064;28;20368;-66
2023/09/02 07:33:59;;;;;;;21.98;15.85;;;19.20;99.90;;;;;;5035203;28;20025;-66
2023/09/02 07:36:25;;;;;;;17.05;13.93;;;19.50;99.90;;;;;;5035556;28;20025;-66
2023/09/02 07:38:51;;;;;;;16.90;14.23;;;19.60;99.90;;;;;;5035532;28;20531;-66
2023/09/02 07:41:16;;;;;;;16.50;13.68;;;19.60;99.90;;;;;;5035870;28;20426;-66
2023/09/02 07:43:42;;;;;;;18.70;14.05;;;19.30;99.90;;;;;;5035042;28;20379;-66
2023/09/02 07:46:10;;;;;;;18.23;14.30;;;19.10;99.90;;;;;;5035732;28;20025;-66
2023/09/02 07:48:35;;;;;;;24.13;15.82;;;19.00;99.90;;;;;;5035754;28;20035;-67
2023/09/02 07:51:01;;;;;;;20.50;15.68;;;18.90;99.90;;;;;;5035371;28;20029;-66
2023/09/02 07:53:28;;;;;;;18.73;16.00;;;18.70;99.90;;;;;;5035566;28;20534;-66
2023/09/02 07:55:53;;;;;;;21.45;17.33;;;18.70;99.90;;;;;;5034325;28;20068;-66
2023/09/02 07:58:19;;;;;;;20.65;16.63;;;18.70;99.90;;;;;;5035092;28;20053;-66
2023/09/02 08:00:45;;;;;;;20.20;15.98;;;18.60;99.90;;;;;;5035425;28;20084;-66
2023/09/02 08:03:10;;;;;;;22.48;15.43;;;18.50;99.90;;;;;;5035090;28;20036;-66
2023/09/02 08:05:39;;;;;;;20.35;15.13;;;18.50;99.90;;;;;;5035417;28;20039;-67
2023/09/02 08:08:05;;;;;;;19.55;15.43;;;18.50;99.90;;;;;;5034725;28;20030;-66
2023/09/02 08:10:30;;;;;;;26.25;19.08;;;18.40;99.90;;;;;;5034799;28;20026;-66
2023/09/02 08:12:56;;;;;;;20.08;15.75;;;18.50;99.90;;;;;;5034707;28;20036;-66
2023/09/02 08:15:22;;;;;;;17.05;13.35;;;18.70;99.90;;;;;;5034798;28;20022;-66
2023/09/02 08:17:47;;;;;;;17.95;14.85;;;18.80;99.90;;;;;;5034498;28;20467;-66
2023/09/02 08:20:14;;;;;;;16.65;13.27;;;18.80;99.90;;;;;;5035024;28;20472;-67
2023/09/02 08:22:42;;;;;;;18.55;13.73;;;18.80;99.90;;;;;;5034062;28;20585;-75
2023/09/02 08:25:10;;;;;;;19.17;13.75;;;19.00;99.90;;;;;;5034777;28;20025;-66
2023/09/02 08:27:35;;;;;;;16.98;13.85;;;19.00;99.90;;;;;;5034988;28;20368;-66
2023/09/02 08:30:02;;;;;;;18.20;13.48;;;19.10;99.90;;;;;;5034666;28;20026;-67
2023/09/02 08:32:30;;;;;;;16.77;13.00;;;19.40;99.90;;;;;;5034012;28;20033;-68
2023/09/02 08:34:56;;;;;;;17.45;13.80;;;19.70;99.90;;;;;;5034414;28;20026;-66
2023/09/02 08:37:21;;;;;;;16.35;12.38;;;19.90;82.70;;;;;;5034320;28;20028;-67
2023/09/02 08:39:47;;;;;;;15.85;13.13;;;20.00;69.10;;;;;;5034069;28;20429;-67
2023/09/02 08:42:17;;;;;;;18.08;13.02;;;20.00;89.80;;;;;;5034761;28;20116;-66
2023/09/02 08:44:46;;;;;;;17.85;11.50;;;20.10;70.90;;;;;;5034122;28;20082;-67
2023/09/02 08:47:13;;;;;;;14.82;11.25;;;20.20;92.30;;;;;;5034584;28;20035;-67
2023/09/02 08:49:38;;;;;;;14.27;11.63;;;20.50;67.60;;;;;;5034560;28;20167;-67
2023/09/02 08:52:05;;;;;;;15.38;12.68;;;20.60;16.60;;;;;;5034610;28;20467;-66
2023/09/02 08:54:33;;;;;;;14.52;11.40;;;20.60;10.20;;;;;;5033613;28;20021;-66
2023/09/02 08:57:01;;;;;;;13.93;10.85;;;20.40;40.70;;;;;;5033286;28;20079;-67
2023/09/02 08:59:28;;;;;;;14.45;11.07;;;20.90;15.20;;;;;;5034442;28;20021;-66
2023/09/02 09:01:56;;;;;;;14.10;11.90;;;21.50;1.00;;;;;;5034076;28;20053;-67
2023/09/02 09:04:22;;;;;;;14.18;12.05;;;21.30;1.00;;;;;;5033468;28;20553;-67
2023/09/02 09:06:48;;;;;;;15.65;11.68;;;21.20;1.00;;;;;;5034238;28;20033;-67
2023/09/02 09:09:17;;;;;;;15.20;12.10;;;21.10;1.00;;;;;;5034077;28;20048;-67
2023/09/02 09:11:43;;;;;;;15.50;12.48;;;21.00;9.90;;;;;;5033703;28;20022;-67
2023/09/02 09:14:17;;;;;;;13.93;11.20;;;21.00;1.00;;;;;;5034237;28;20064;-70
2023/09/02 09:16:43;;;;;;;13.05;11.45;;;21.00;24.30;;;;;;5033811;28;20045;-74
2023/09/02 09:19:09;;;;;;;14.05;11.43;;;20.90;30.80;;;;;;5034138;28;20025;-67
2023/09/02 09:21:35;;;;;;;12.82;10.50;;;21.10;28.00;;;;;;5034059;28;20033;-68
2023/09/02 09:24:02;;;;;;;14.82;9.93;;;21.40;20.30;;;;;;5032935;28;20488;-67
2023/09/02 09:26:30;;;;;;;14.38;10.20;;;21.60;12.80;;;;;;5033717;28;20017;-67
2023/09/02 09:28:57;;;;;;;10.60;9.10;;;21.70;1.80;;;;;;5033268;28;20105;-66
2023/09/02 09:31:24;;;;;;;11.80;9.23;;;21.70;1.00;;;;;;5033336;28;20022;-66
2023/09/02 09:36:28;;;;;;;12.40;9.68;;;22.00;1.00;;;;;;5112011;27;20129;-66
2023/09/02 09:38:56;;;;;;;11.73;9.45;;;21.90;1.00;;;;;;5112145;28;20035;-66
2023/09/02 09:41:25;;;;;;;12.35;10.02;;;21.70;1.00;;;;;;5111401;28;20093;-66
2023/09/02 09:44:11;;;;;;;9.77;8.77;;;22.00;1.00;;;;;;5111924;28;20020;-66
2023/09/02 09:54:42;;;;;;;9.18;7.50;;;22.40;1.00;;;;;;5111983;27;20438;-66
2023/09/02 09:57:10;;;;;;;8.65;6.82;;;23.60;99.90;;;;;;5111730;28;20031;-67
2023/09/02 09:59:36;;;;;;;9.95;7.57;;;23.50;99.90;;;;;;5112097;28;20361;-67
2023/09/02 10:02:04;;;;;;;8.55;7.32;;;23.80;99.90;;;;;;5111745;28;20538;-67
2023/09/02 10:04:30;;;;;;;8.60;7.50;;;24.10;99.90;;;;;;5111296;28;20034;-67
2023/09/02 10:06:59;;;;;;;7.35;6.45;;;24.20;99.90;;;;;;5111690;28;20099;-67
2023/09/02 10:09:42;;;;;;;8.85;6.25;;;24.60;18.20;;;;;;5111876;28;20032;-67
2023/09/02 10:12:12;;;;;;;8.48;6.95;;;25.10;99.90;;;;;;5111699;28;20460;-67
2023/09/02 10:14:43;;;;;;;10.95;7.97;;;24.60;99.90;;;;;;5111502;28;20031;-67
2023/09/02 10:17:09;;;;;;;7.55;6.78;;;24.20;99.90;;;;;;5111141;28;20384;-67
2023/09/02 10:19:36;;;;;;;8.52;6.57;;;24.20;99.90;;;;;;5111575;28;20027;-67
2023/09/02 10:22:04;;;;;;;7.38;5.63;;;24.40;99.90;;;;;;5111560;28;20034;-67
2023/09/02 10:24:38;;;;;;;9.45;6.72;;;24.70;99.90;;;;;;5111508;28;20028;-67
2023/09/02 10:27:11;;;;;;;7.18;6.40;;;25.20;99.90;;;;;;5110893;28;20534;-67
2023/09/02 10:29:42;;;;;;;7.22;6.60;;;25.00;99.90;;;;;;5111491;28;20024;-67
2023/09/02 10:32:15;;;;;;;6.82;6.13;;;25.50;99.90;;;;;;5111367;28;20077;-67
2023/09/02 10:35:07;;;;;;;8.68;6.88;;;25.40;1.00;;;;;;5111151;28;20114;-67
2023/09/02 10:37:45;;;;;;;9.43;7.20;;;25.00;99.90;;;;;;5111273;28;20513;-67
2023/09/02 10:40:19;;;;;;;10.05;7.90;;;24.10;1.00;;;;;;5110958;28;20052;-67
2023/09/02 10:42:47;;;;;;;9.15;7.28;;;23.30;99.90;;;;;;5111190;28;20373;-68
2023/09/02 10:45:13;;;;;;;7.13;6.32;;;24.00;99.90;;;;;;5110951;28;20027;-67
2023/09/02 10:47:39;;;;;;;7.97;6.38;;;25.00;99.90;;;;;;5111166;28;20031;-67
2023/09/02 10:50:07;;;;;;;7.40;6.70;;;25.30;99.90;;;;;;5111005;28;20538;-67
2023/09/02 10:52:33;;;;;;;6.03;5.43;;;25.00;1.00;;;;;;5110492;28;20083;-67
2023/09/02 10:55:03;;;;;;;9.05;5.85;;;24.90;99.90;;;;;;5110377;28;20028;-67
2023/09/02 10:57:30;;;;;;;9.45;6.10;;;24.80;93.70;;;;;;5109922;28;20024;-67
2023/09/02 11:00:17;;;;;;;6.65;6.05;;;24.70;99.90;;;;;;5110494;28;20461;-68
2023/09/02 11:02:44;;;;;;;9.15;5.28;;;25.20;94.50;;;;;;5109974;28;20027;-67
2023/09/02 11:05:10;;;;;;;5.43;4.90;;;25.20;99.90;;;;;;5101112;28;20435;-67
2023/09/02 11:07:39;;;;;;;6.38;5.78;;;25.40;1.00;;;;;;5096974;28;20457;-67
2023/09/02 11:10:06;;;;;;;6.70;6.10;;;24.90;99.90;;;;;;5096411;28;20126;-69
2023/09/02 11:12:33;;;;;;;8.85;6.38;;;24.50;99.90;;;;;;5096442;28;20024;-70
2023/09/02 11:15:14;;;;;;;6.90;6.20;;;24.90;99.90;;;;;;5096730;28;20054;-67
2023/09/02 11:17:41;;;;;;;7.53;5.63;;;25.00;48.40;;;;;;5096315;28;20024;-67
2023/09/02 11:20:09;;;;;;;8.40;6.50;;;24.70;99.90;;;;;;5096869;28;20028;-67
2023/09/02 11:22:56;;;;;;;7.35;6.28;;;24.30;99.90;;;;;;5096869;28;20378;-67
2023/09/02 11:31:13;;;;;;;8.60;6.68;;;24.70;99.90;;;;;;5111997;27;20430;-66
2023/09/02 11:33:40;;;;;;;6.67;6.07;;;23.70;99.90;;;;;;5111687;28;20024;-67
2023/09/02 11:36:11;;;;;;;7.10;6.10;;;23.60;1.00;;;;;;5111744;28;20050;-66
2023/09/02 11:38:37;;;;;;;7.80;6.40;;;23.70;1.00;;;;;;5112091;28;20085;-66
2023/09/02 11:41:03;;;;;;;10.68;8.27;;;23.80;1.00;;;;;;5111958;28;20032;-66
2023/09/02 11:43:31;;;;;;;8.80;7.32;;;23.80;99.90;;;;;;5111813;28;20028;-67
2023/09/02 11:45:58;;;;;;;9.80;8.05;;;24.30;99.90;;;;;;5111932;28;20024;-66
2023/09/02 11:48:26;;;;;;;10.20;9.13;;;24.80;99.90;;;;;;5111488;28;20042;-66
2023/09/02 11:50:52;;;;;;;10.85;9.77;;;24.90;99.90;;;;;;5111401;28;20031;-66
2023/09/02 11:53:18;;;;;;;12.90;9.75;;;25.20;99.90;;;;;;5111188;28;20474;-67
2023/09/02 11:55:44;;;;;;;16.52;12.00;;;25.20;99.90;;;;;;5111338;28;20036;-68
2023/09/02 11:58:10;;;;;;;11.98;10.88;;;24.70;99.90;;;;;;5111265;28;20031;-67
2023/09/02 12:00:42;;;;;;;12.48;11.20;;;24.90;99.90;;;;;;5110754;28;20032;-67
2023/09/02 12:03:08;;;;;;;12.55;11.40;;;25.00;99.90;;;;;;5110988;28;20063;-67
2023/09/02 12:05:45;;;;;;;14.73;13.35;;;25.00;23.30;;;;;;5111452;28;20491;-67
2023/09/02 12:08:10;;;;;;;15.98;14.57;;;24.60;99.90;;;;;;5110323;28;20031;-67
2023/09/02 12:10:37;;;;;;;14.65;13.02;;;24.60;34.00;;;;;;5111096;28;20028;-67
2023/09/02 12:13:03;;;;;;;15.25;13.85;;;24.80;99.90;;;;;;5111004;28;20350;-67
2023/09/02 12:15:32;;;;;;;13.70;12.15;;;24.90;1.00;;;;;;5110435;28;20031;-68
2023/09/02 12:17:57;;;;;;;16.13;14.57;;;25.00;1.00;;;;;;5110835;28;20035;-67
2023/09/02 12:20:23;;;;;;;16.88;15.38;;;25.30;1.00;;;;;;5110868;28;20057;-67
2023/09/02 12:22:49;;;;;;;16.88;15.15;;;25.00;99.90;;;;;;5110420;28;20020;-67
2023/09/02 12:25:23;;;;;;;15.13;13.73;;;25.10;1.00;;;;;;5110752;28;20032;-67
2023/09/02 12:27:51;;;;;;;18.42;16.73;;;25.30;99.90;;;;;;5111057;28;20031;-67
2023/09/02 12:30:27;;;;;;;17.77;16.10;;;24.90;50.00;;;;;;5109726;28;20047;-67
2023/09/02 12:32:56;;;;;;;18.15;16.27;;;24.80;99.90;;;;;;5110174;28;20031;-67
2023/09/02 12:35:22;;;;;;;18.63;16.83;;;25.20;99.90;;;;;;5111010;28;20027;-67
2023/09/02 12:38:00;;;;;;;17.05;15.45;;;25.20;27.10;;;;;;5110653;28;20469;-67
2023/09/02 12:40:26;;;;;;;15.40;13.95;;;25.10;1.00;;;;;;5106857;28;20035;-67
2023/09/02 12:42:55;;;;;;;19.65;17.95;;;25.40;99.90;;;;;;5097282;28;20032;-67
2023/09/02 12:45:36;;;;;;;21.17;18.33;;;24.90;99.90;;;;;;5097095;28;20461;-67
2023/09/02 12:48:03;;;;;;;21.40;19.38;;;24.70;99.90;;;;;;5096541;28;20031;-67
2023/09/02 12:50:30;;;;;;;26.55;19.83;;;24.30;99.90;;;;;;5096280;28;20481;-67